createdAt,value
2017-04-11T00:00:02.409Z,-0.47
2017-04-11T00:01:02.394Z,-0.42
2017-04-11T00:02:02.391Z,-0.49
2017-04-11T00:03:02.360Z,-0.42
2017-04-11T00:04:02.345Z,-0.39
2017-04-11T00:05:02.328Z,-0.41
2017-04-11T00:06:02.330Z,-0.37
2017-04-11T00:07:02.293Z,-0.32
2017-04-11T00:08:02.284Z,-0.21
2017-04-11T00:09:02.261Z,-0.21
2017-04-11T00:10:02.242Z,-0.27
2017-04-11T00:11:02.229Z,-0.35
2017-04-11T00:12:02.208Z,-0.19
2017-04-11T00:13:02.197Z,-0.23
2017-04-11T00:14:02.182Z,-0.34
2017-04-11T00:15:02.213Z,-0.3
2017-04-11T00:16:02.145Z,-0.3
2017-04-11T00:17:02.139Z,-0.21
2017-04-11T00:18:02.114Z,-0.2
2017-04-11T00:19:02.096Z,-0.16
2017-04-11T00:20:02.084Z,-0.17
2017-04-11T00:21:02.063Z,-0.2
2017-04-11T00:22:02.046Z,-0.3
2017-04-11T00:23:02.031Z,-0.44
2017-04-11T00:24:02.017Z,-0.38
2017-04-11T00:25:02.000Z,-0.38
2017-04-11T00:26:02.184Z,-0.38
2017-04-11T00:27:02.181Z,-0.34
2017-04-11T00:28:01.947Z,-0.27
2017-04-11T00:29:01.938Z,-0.26
2017-04-11T00:30:01.920Z,-0.26
2017-04-11T00:31:01.899Z,-0.49
2017-04-11T00:32:01.879Z,-0.52
2017-04-11T00:33:01.867Z,-0.5
2017-04-11T00:34:01.854Z,-0.62
2017-04-11T00:35:01.837Z,-0.53
2017-04-11T00:36:01.514Z,-0.55
2017-04-11T00:37:01.797Z,-0.62
2017-04-11T00:38:01.784Z,-0.6
2017-04-11T00:39:01.462Z,-0.58
2017-04-11T00:40:01.749Z,-0.55
2017-04-11T00:41:01.743Z,-0.55
2017-04-11T00:42:01.718Z,-0.53
2017-04-11T00:43:01.697Z,-0.44
2017-04-11T00:44:01.682Z,-0.5
2017-04-11T00:45:01.669Z,-0.47
2017-04-11T00:46:01.645Z,-0.42
2017-04-11T00:47:01.633Z,-0.41
2017-04-11T00:48:01.621Z,-0.42
2017-04-11T00:49:01.605Z,-0.41
2017-04-11T00:50:01.581Z,-0.41
2017-04-11T00:51:01.572Z,-0.5
2017-04-11T00:52:01.544Z,-0.45
2017-04-11T00:53:01.534Z,-0.38
2017-04-11T00:54:01.526Z,-0.5
2017-04-11T00:55:01.203Z,-0.55
2017-04-11T00:56:01.514Z,-0.55
2017-04-11T00:57:01.365Z,-0.53
2017-04-11T00:58:01.452Z,-0.39
2017-04-11T00:59:01.426Z,-0.53
2017-04-11T01:00:01.425Z,-0.47
2017-04-11T01:01:01.098Z,-0.44
2017-04-11T01:02:01.081Z,-0.53
2017-04-11T01:03:01.056Z,-0.47
2017-04-11T01:04:01.083Z,-0.47
2017-04-11T01:05:01.324Z,-0.45
2017-04-11T01:06:01.010Z,-0.34
2017-04-11T01:07:01.296Z,-0.49
2017-04-11T01:08:01.273Z,-0.44
2017-04-11T01:09:01.257Z,-0.37
2017-04-11T01:10:01.243Z,-0.42
2017-04-11T01:11:01.231Z,-0.47
2017-04-11T01:12:01.213Z,-0.41
2017-04-11T01:13:01.194Z,-0.44
2017-04-11T01:14:01.182Z,-0.41
2017-04-11T01:15:01.164Z,-0.58
2017-04-11T01:16:01.149Z,-0.47
2017-04-11T01:17:01.132Z,-0.31
2017-04-11T01:18:00.816Z,-0.34
2017-04-11T01:19:01.098Z,-0.31
2017-04-11T01:20:01.085Z,-0.34
2017-04-11T01:21:01.065Z,-0.39
2017-04-11T01:22:01.056Z,-0.39
2017-04-11T01:23:01.032Z,-0.37
2017-04-11T01:24:01.027Z,-0.38
2017-04-11T01:25:01.004Z,-0.39
2017-04-11T01:26:00.988Z,-0.38
2017-04-11T01:27:00.968Z,-0.55
2017-04-11T01:28:00.957Z,-0.59
2017-04-11T01:29:00.934Z,-0.58
2017-04-11T01:30:00.923Z,-0.5
2017-04-11T01:31:00.903Z,-0.5
2017-04-11T01:32:00.885Z,-0.47
2017-04-11T01:33:00.872Z,-0.67
2017-04-11T01:34:00.848Z,-0.73
2017-04-11T01:35:00.837Z,-0.78
2017-04-11T01:36:00.818Z,-0.83
2017-04-11T01:37:00.802Z,-0.78
2017-04-11T01:38:00.788Z,-0.83
2017-04-11T01:39:00.776Z,-0.73
2017-04-11T01:40:00.752Z,-0.7
2017-04-11T01:41:00.736Z,-0.68
2017-04-11T01:42:00.719Z,-0.56
2017-04-11T01:43:00.702Z,-0.55
2017-04-11T01:44:00.686Z,-0.58
2017-04-11T01:45:00.667Z,-0.78
2017-04-11T01:46:00.651Z,-0.78
2017-04-11T01:47:00.637Z,-0.83
2017-04-11T01:48:00.613Z,-0.85
2017-04-11T01:49:00.598Z,-0.9
2017-04-11T01:50:00.580Z,-0.95
2017-04-11T01:51:00.569Z,-0.97
2017-04-11T01:52:00.547Z,-0.99
2017-04-11T01:53:00.574Z,-0.9
2017-04-11T01:54:00.521Z,-0.86
2017-04-11T01:55:00.501Z,-0.73
2017-04-11T01:56:00.481Z,-0.81
2017-04-11T01:57:00.466Z,-0.74
2017-04-11T01:58:00.448Z,-0.8
2017-04-11T01:59:00.425Z,-0.73
2017-04-11T02:00:00.411Z,-0.74
2017-04-11T02:01:00.395Z,-0.92
2017-04-11T02:02:00.374Z,-0.96
2017-04-11T02:03:00.360Z,-0.9
2017-04-11T02:04:00.345Z,-0.89
2017-04-11T02:05:00.328Z,-0.93
2017-04-11T02:06:00.308Z,-0.95
2017-04-11T02:07:00.293Z,-0.93
2017-04-11T02:08:00.273Z,-0.97
2017-04-11T02:09:00.258Z,-0.97
2017-04-11T02:10:00.239Z,-1.11
2017-04-11T02:11:00.222Z,-1.1
2017-04-11T02:12:00.202Z,-1.13
2017-04-11T02:13:00.228Z,-1.17
2017-04-11T02:13:59.865Z,-0.99
2017-04-11T02:15:00.152Z,-1.02
2017-04-11T02:16:00.136Z,-0.96
2017-04-11T02:17:00.119Z,-0.93
2017-04-11T02:18:00.108Z,-0.96
2017-04-11T02:19:00.092Z,-0.99
2017-04-11T02:20:00.063Z,-1.11
2017-04-11T02:21:00.045Z,-0.99
2017-04-11T02:22:00.030Z,-1.03
2017-04-11T02:23:00.021Z,-0.96
2017-04-11T02:23:59.997Z,-0.97
2017-04-11T02:24:59.983Z,-1
2017-04-11T02:25:59.960Z,-1.02
2017-04-11T02:26:59.953Z,-1.08
2017-04-11T02:27:59.928Z,-1.15
2017-04-11T02:28:59.910Z,-1.11
2017-04-11T02:29:59.894Z,-1.21
2017-04-11T02:30:59.878Z,-1.11
2017-04-11T02:31:59.861Z,-1.17
2017-04-11T02:32:59.837Z,-1.14
2017-04-11T02:33:59.822Z,-1.07
2017-04-11T02:34:59.805Z,-1.14
2017-04-11T02:35:59.488Z,-1.15
2017-04-11T02:36:59.765Z,-1.25
2017-04-11T02:37:59.756Z,-1.29
2017-04-11T02:38:59.739Z,-1.35
2017-04-11T02:39:59.717Z,-1.36
2017-04-11T02:40:59.697Z,-1.26
2017-04-11T02:41:59.675Z,-1.31
2017-04-11T02:42:59.367Z,-1.21
2017-04-11T02:43:59.645Z,-1.28
2017-04-11T02:44:59.631Z,-1.25
2017-04-11T02:45:59.608Z,-1.29
2017-04-11T02:46:59.591Z,-1.21
2017-04-11T02:47:59.568Z,-1.23
2017-04-11T02:48:59.552Z,-1.14
2017-04-11T02:49:59.536Z,-1.2
2017-04-11T02:50:59.518Z,-1.15
2017-04-11T02:51:59.498Z,-1.21
2017-04-11T02:52:59.489Z,-1.23
2017-04-11T02:53:59.461Z,-1.21
2017-04-11T02:54:59.445Z,-1.13
2017-04-11T02:55:59.125Z,-1.14
2017-04-11T02:56:59.414Z,-1.21
2017-04-11T02:57:59.391Z,-1.2
2017-04-11T02:58:59.077Z,-1.15
2017-04-11T02:59:59.360Z,-1.13
2017-04-11T03:00:59.038Z,-1.13
2017-04-11T03:01:59.018Z,-1.11
2017-04-11T03:02:59.008Z,-1.11
2017-04-11T03:03:59.295Z,-1.13
2017-04-11T03:04:59.273Z,-1.05
2017-04-11T03:05:59.257Z,-1.07
2017-04-11T03:06:58.934Z,-1.2
2017-04-11T03:07:59.221Z,-0.97
2017-04-11T03:08:59.202Z,-1.03
2017-04-11T03:09:58.893Z,-1.15
2017-04-11T03:10:58.869Z,-1.03
2017-04-11T03:11:59.162Z,-1.15
2017-04-11T03:12:59.136Z,-1.07
2017-04-11T03:13:58.817Z,-0.99
2017-04-11T03:14:59.101Z,-1.08
2017-04-11T03:15:59.084Z,-1.14
2017-04-11T03:16:59.065Z,-1.03
2017-04-11T03:17:59.043Z,-1
2017-04-11T03:18:59.028Z,-1.07
2017-04-11T03:19:59.008Z,-1.05
2017-04-11T03:20:58.694Z,-0.97
2017-04-11T03:21:58.984Z,-1.1
2017-04-11T03:22:58.660Z,-0.97
2017-04-11T03:23:58.940Z,-0.97
2017-04-11T03:24:58.927Z,-0.9
2017-04-11T03:25:58.603Z,-0.96
2017-04-11T03:26:58.591Z,-0.93
2017-04-11T03:27:58.876Z,-0.96
2017-04-11T03:28:58.854Z,-0.85
2017-04-11T03:29:58.838Z,-0.92
2017-04-11T03:30:58.830Z,-0.9
2017-04-11T03:31:58.813Z,-0.89
2017-04-11T03:32:58.789Z,-0.83
2017-04-11T03:33:58.773Z,-0.95
2017-04-11T03:34:58.756Z,-0.97
2017-04-11T03:35:58.739Z,-1
2017-04-11T03:36:58.723Z,-1.2
2017-04-11T03:37:58.709Z,-1.14
2017-04-11T03:38:58.691Z,-1.18
2017-04-11T03:39:58.069Z,-1.32
2017-04-11T03:40:58.652Z,-1.33
2017-04-11T03:41:58.637Z,-1.32
2017-04-11T03:42:58.621Z,-1.33
2017-04-11T03:43:58.604Z,-1.44
2017-04-11T03:44:58.333Z,-1.46
2017-04-11T03:45:58.570Z,-1.31
2017-04-11T03:46:58.549Z,-1.33
2017-04-11T03:47:58.539Z,-1.41
2017-04-11T03:48:58.530Z,-1.33
2017-04-11T03:49:58.503Z,-1.33
2017-04-11T03:50:58.479Z,-1.33
2017-04-11T03:51:58.458Z,-1.32
2017-04-11T03:52:58.478Z,-1.31
2017-04-11T03:53:58.130Z,-1.43
2017-04-11T03:54:58.404Z,-1.36
2017-04-11T03:55:58.391Z,-1.36
2017-04-11T03:56:58.369Z,-1.28
2017-04-11T03:57:58.353Z,-1.32
2017-04-11T03:58:58.334Z,-1.32
2017-04-11T03:59:58.316Z,-1.35
2017-04-11T04:00:58.303Z,-1.41
2017-04-11T04:01:58.281Z,-1.54
2017-04-11T04:02:58.273Z,-1.39
2017-04-11T04:03:58.244Z,-1.43
2017-04-11T04:04:58.279Z,-1.47
2017-04-11T04:05:58.212Z,-1.5
2017-04-11T04:06:58.192Z,-1.46
2017-04-11T04:07:58.179Z,-1.53
2017-04-11T04:08:58.160Z,-1.46
2017-04-11T04:09:57.836Z,-1.5
2017-04-11T04:10:58.120Z,-1.57
2017-04-11T04:11:58.102Z,-1.59
2017-04-11T04:12:58.130Z,-1.53
2017-04-11T04:13:58.074Z,-1.51
2017-04-11T04:14:57.747Z,-1.53
2017-04-11T04:15:57.730Z,-1.54
2017-04-11T04:16:58.012Z,-1.56
2017-04-11T04:17:57.691Z,-1.5
2017-04-11T04:18:57.976Z,-1.5
2017-04-11T04:19:57.960Z,-1.54
2017-04-11T04:20:57.942Z,-1.61
2017-04-11T04:21:57.925Z,-1.72
2017-04-11T04:22:57.905Z,-1.68
2017-04-11T04:23:57.888Z,-1.62
2017-04-11T04:24:57.873Z,-1.72
2017-04-11T04:25:57.848Z,-1.56
2017-04-11T04:26:57.834Z,-1.68
2017-04-11T04:27:57.817Z,-1.68
2017-04-11T04:28:57.796Z,-1.59
2017-04-11T04:29:57.780Z,-1.68
2017-04-11T04:30:57.772Z,-1.67
2017-04-11T04:31:57.744Z,-1.62
2017-04-11T04:32:57.728Z,-1.53
2017-04-11T04:33:57.709Z,-1.56
2017-04-11T04:34:57.688Z,-1.5
2017-04-11T04:35:57.668Z,-1.56
2017-04-11T04:36:57.652Z,-1.65
2017-04-11T04:37:57.672Z,-1.61
2017-04-11T04:38:57.619Z,-1.78
2017-04-11T04:39:57.601Z,-1.62
2017-04-11T04:40:57.581Z,-1.65
2017-04-11T04:41:57.561Z,-1.67
2017-04-11T04:42:57.540Z,-1.74
2017-04-11T04:43:57.526Z,-1.71
2017-04-11T04:44:57.503Z,-1.75
2017-04-11T04:45:57.485Z,-1.82
2017-04-11T04:46:57.469Z,-1.72
2017-04-11T04:47:57.455Z,-1.83
2017-04-11T04:48:57.433Z,-1.75
2017-04-11T04:49:57.114Z,-1.65
2017-04-11T04:50:57.425Z,-1.72
2017-04-11T04:51:57.381Z,-1.72
2017-04-11T04:52:57.358Z,-1.68
2017-04-11T04:53:57.339Z,-1.68
2017-04-11T04:54:57.319Z,-1.68
2017-04-11T04:55:57.306Z,-1.67
2017-04-11T04:56:57.290Z,-1.67
2017-04-11T04:57:57.279Z,-1.74
2017-04-11T04:58:57.256Z,-1.75
2017-04-11T04:59:57.236Z,-1.68
2017-04-11T05:00:57.216Z,-1.7
2017-04-11T05:01:57.196Z,-1.67
2017-04-11T05:02:57.224Z,-1.64
2017-04-11T05:03:57.160Z,-1.62
2017-04-11T05:04:57.144Z,-1.5
2017-04-11T05:05:57.126Z,-1.5
2017-04-11T05:06:57.109Z,-1.46
2017-04-11T05:07:57.094Z,-1.47
2017-04-11T05:08:57.073Z,-1.49
2017-04-11T05:09:57.055Z,-1.41
2017-04-11T05:10:57.072Z,-1.5
2017-04-11T05:11:57.017Z,-1.71
2017-04-11T05:12:56.997Z,-1.7
2017-04-11T05:13:56.986Z,-1.5
2017-04-11T05:14:56.960Z,-1.51
2017-04-11T05:15:56.948Z,-1.57
2017-04-11T05:16:56.926Z,-1.61
2017-04-11T05:17:56.909Z,-1.62
2017-04-11T05:18:56.894Z,-1.61
2017-04-11T05:19:56.876Z,-1.61
2017-04-11T05:20:56.853Z,-1.5
2017-04-11T05:21:56.835Z,-1.61
2017-04-11T05:22:56.824Z,-1.74
2017-04-11T05:23:56.804Z,-1.68
2017-04-11T05:24:56.785Z,-1.67
2017-04-11T05:25:56.781Z,-1.77
2017-04-11T05:26:56.749Z,-1.77
2017-04-11T05:27:56.726Z,-1.78
2017-04-11T05:28:56.710Z,-1.88
2017-04-11T05:29:56.692Z,-1.86
2017-04-11T05:30:56.674Z,-1.78
2017-04-11T05:31:56.659Z,-1.75
2017-04-11T05:32:56.647Z,-1.86
2017-04-11T05:33:56.620Z,-1.75
2017-04-11T05:34:56.608Z,-1.82
2017-04-11T05:35:56.593Z,-1.67
2017-04-11T05:36:56.565Z,-1.65
2017-04-11T05:37:56.545Z,-1.46
2017-04-11T05:38:56.526Z,-1.64
2017-04-11T05:39:56.511Z,-1.77
2017-04-11T05:40:56.494Z,-1.7
2017-04-11T05:41:56.475Z,-1.62
2017-04-11T05:42:56.459Z,-1.77
2017-04-11T05:43:56.440Z,-1.86
2017-04-11T05:44:56.424Z,-1.85
2017-04-11T05:45:56.402Z,-1.77
2017-04-11T05:46:56.381Z,-1.86
2017-04-11T05:47:56.372Z,-1.68
2017-04-11T05:48:56.350Z,-1.8
2017-04-11T05:49:56.328Z,-1.7
2017-04-11T05:50:56.313Z,-1.75
2017-04-11T05:51:56.298Z,-1.88
2017-04-11T05:52:56.277Z,-1.86
2017-04-11T05:53:56.258Z,-1.88
2017-04-11T05:54:56.242Z,-1.86
2017-04-11T05:55:56.224Z,-1.86
2017-04-11T05:56:56.202Z,-1.9
2017-04-11T05:57:56.186Z,-1.82
2017-04-11T05:58:56.176Z,-1.68
2017-04-11T05:59:56.146Z,-1.9
2017-04-11T06:00:56.125Z,-1.93
2017-04-11T06:01:56.105Z,-1.71
2017-04-11T06:02:56.092Z,-1.8
2017-04-11T06:03:56.075Z,-1.68
2017-04-11T06:04:56.055Z,-1.68
2017-04-11T06:05:56.044Z,-1.65
2017-04-11T06:06:56.021Z,-1.64
2017-04-11T06:07:55.998Z,-1.75
2017-04-11T06:08:55.978Z,-1.72
2017-04-11T06:09:55.963Z,-1.75
2017-04-11T06:10:55.943Z,-1.75
2017-04-11T06:11:55.925Z,-1.89
2017-04-11T06:12:55.908Z,-1.92
2017-04-11T06:13:55.891Z,-1.89
2017-04-11T06:14:55.868Z,-1.92
2017-04-11T06:15:55.854Z,-1.92
2017-04-11T06:16:55.830Z,-1.9
2017-04-11T06:17:55.817Z,-1.8
2017-04-11T06:18:55.799Z,-1.88
2017-04-11T06:19:55.779Z,-1.86
2017-04-11T06:20:55.760Z,-1.8
2017-04-11T06:21:55.741Z,-1.75
2017-04-11T06:22:55.721Z,-1.8
2017-04-11T06:23:55.703Z,-1.85
2017-04-11T06:24:55.694Z,-1.89
2017-04-11T06:25:55.672Z,-1.89
2017-04-11T06:26:55.647Z,-1.71
2017-04-11T06:27:55.633Z,-1.8
2017-04-11T06:28:55.611Z,-1.82
2017-04-11T06:29:55.589Z,-1.75
2017-04-11T06:30:55.574Z,-1.85
2017-04-11T06:31:55.553Z,-1.75
2017-04-11T06:32:55.536Z,-1.74
2017-04-11T06:33:55.521Z,-1.77
2017-04-11T06:34:55.499Z,-1.74
2017-04-11T06:35:55.479Z,-1.89
2017-04-11T06:36:55.459Z,-1.89
2017-04-11T06:37:55.140Z,-1.93
2017-04-11T06:38:55.423Z,-1.83
2017-04-11T06:39:55.407Z,-1.75
2017-04-11T06:40:55.385Z,-1.65
2017-04-11T06:41:55.367Z,-1.72
2017-04-11T06:42:55.354Z,-1.8
2017-04-11T06:43:55.336Z,-1.86
2017-04-11T06:44:55.313Z,-1.89
2017-04-11T06:45:55.296Z,-2.01
2017-04-11T06:46:55.281Z,-2.01
2017-04-11T06:47:55.262Z,-2.08
2017-04-11T06:48:55.243Z,-2.18
2017-04-11T06:49:54.957Z,-2.19
2017-04-11T06:50:55.208Z,-2.24
2017-04-11T06:51:55.184Z,-2.19
2017-04-11T06:52:55.169Z,-2.22
2017-04-11T06:53:55.152Z,-2.25
2017-04-11T06:54:55.135Z,-2.14
2017-04-11T06:55:54.815Z,-1.96
2017-04-11T06:56:55.093Z,-1.9
2017-04-11T06:57:55.081Z,-1.95
2017-04-11T06:58:55.053Z,-1.93
2017-04-11T06:59:55.045Z,-2.06
2017-04-11T07:00:55.022Z,-1.9
2017-04-11T07:01:55.000Z,-1.98
2017-04-11T07:02:54.982Z,-1.92
2017-04-11T07:03:54.965Z,-1.92
2017-04-11T07:04:54.944Z,-1.72
2017-04-11T07:05:54.926Z,-1.71
2017-04-11T07:06:54.905Z,-1.7
2017-04-11T07:07:54.893Z,-1.75
2017-04-11T07:08:54.874Z,-1.92
2017-04-11T07:09:54.849Z,-1.88
2017-04-11T07:10:54.838Z,-1.88
2017-04-11T07:11:54.817Z,-1.93
2017-04-11T07:12:54.803Z,-1.92
2017-04-11T07:13:54.777Z,-1.83
2017-04-11T07:14:54.456Z,-1.83
2017-04-11T07:15:54.743Z,-1.88
2017-04-11T07:16:54.732Z,-1.88
2017-04-11T07:17:54.714Z,-1.9
2017-04-11T07:18:54.729Z,-1.89
2017-04-11T07:19:54.672Z,-1.89
2017-04-11T07:20:54.651Z,-2.01
2017-04-11T07:21:54.633Z,-2.08
2017-04-11T07:22:54.613Z,-2.22
2017-04-11T07:23:54.598Z,-2.18
2017-04-11T07:24:54.576Z,-2.22
2017-04-11T07:25:54.559Z,-2.24
2017-04-11T07:26:54.243Z,-2.06
2017-04-11T07:27:54.525Z,-2.07
2017-04-11T07:28:54.500Z,-1.98
2017-04-11T07:29:54.182Z,-2.07
2017-04-11T07:30:54.467Z,-2.07
2017-04-11T07:31:53.842Z,-2.21
2017-04-11T07:32:54.124Z,-2.26
2017-04-11T07:33:54.107Z,-2.22
2017-04-11T07:34:54.090Z,-2.29
2017-04-11T07:35:54.370Z,-2.24
2017-04-11T07:36:54.058Z,-2.11
2017-04-11T07:37:54.335Z,-2.13
2017-04-11T07:38:54.317Z,-2.29
2017-04-11T07:39:54.296Z,-2.22
2017-04-11T07:40:54.291Z,-2.32
2017-04-11T07:41:53.965Z,-2.37
2017-04-11T07:42:54.250Z,-2.28
2017-04-11T07:43:54.222Z,-2.14
2017-04-11T07:44:54.206Z,-2.25
2017-04-11T07:45:54.190Z,-2.26
2017-04-11T07:46:54.167Z,-2.24
2017-04-11T07:47:54.150Z,-2.33
2017-04-11T07:48:54.133Z,-2.24
2017-04-11T07:49:54.111Z,-2.11
2017-04-11T07:50:54.094Z,-2.33
2017-04-11T07:51:54.071Z,-2.41
2017-04-11T07:52:54.056Z,-2.32
2017-04-11T07:53:54.069Z,-2.28
2017-04-11T07:54:53.711Z,-2.33
2017-04-11T07:55:53.999Z,-2.33
2017-04-11T07:56:53.980Z,-2.41
2017-04-11T07:57:53.960Z,-2.44
2017-04-11T07:58:53.940Z,-2.41
2017-04-11T07:59:53.922Z,-2.29
2017-04-11T08:00:53.903Z,-2.35
2017-04-11T08:01:53.887Z,-2.22
2017-04-11T08:02:53.862Z,-2.18
2017-04-11T08:03:53.844Z,-2.21
2017-04-11T08:04:53.827Z,-2.19
2017-04-11T08:05:53.808Z,-2.16
2017-04-11T08:06:53.788Z,-2.11
2017-04-11T08:07:53.771Z,-2.1
2017-04-11T08:08:53.756Z,-2.04
2017-04-11T08:09:53.428Z,-1.92
2017-04-11T08:10:53.411Z,-1.9
2017-04-11T08:11:53.396Z,-1.92
2017-04-11T08:12:53.681Z,-2.1
2017-04-11T08:13:53.657Z,-2.28
2017-04-11T08:14:53.636Z,-2.21
2017-04-11T08:15:53.623Z,-2.25
2017-04-11T08:16:53.606Z,-2.24
2017-04-11T08:17:53.582Z,-2.07
2017-04-11T08:18:53.566Z,-2.21
2017-04-11T08:19:53.248Z,-2.24
2017-04-11T08:20:53.530Z,-2.35
2017-04-11T08:21:53.515Z,-2.25
2017-04-11T08:22:53.493Z,-2.41
2017-04-11T08:23:53.478Z,-2.29
2017-04-11T08:24:53.455Z,-2.25
2017-04-11T08:25:53.432Z,-2.32
2017-04-11T08:26:53.421Z,-2.38
2017-04-11T08:27:53.401Z,-2.29
2017-04-11T08:28:53.377Z,-2.33
2017-04-11T08:29:53.060Z,-2.29
2017-04-11T08:30:53.343Z,-2.21
2017-04-11T08:31:53.320Z,-2.04
2017-04-11T08:32:53.306Z,-2.04
2017-04-11T08:33:53.321Z,-2.11
2017-04-11T08:34:53.266Z,-2.08
2017-04-11T08:35:53.248Z,-2.14
2017-04-11T08:36:53.226Z,-2.22
2017-04-11T08:37:53.213Z,-2.24
2017-04-11T08:38:53.493Z,-2.43
2017-04-11T08:39:53.173Z,-2.33
2017-04-11T08:40:53.155Z,-2.19
2017-04-11T08:41:53.140Z,-2.25
2017-04-11T08:42:52.816Z,-2.19
2017-04-11T08:43:53.100Z,-2.08
2017-04-11T08:44:53.078Z,-2.25
2017-04-11T08:45:53.059Z,-2.03
2017-04-11T08:46:53.039Z,-2.1
2017-04-11T08:47:53.033Z,-2.21
2017-04-11T08:48:53.010Z,-2.06
2017-04-11T08:49:52.991Z,-1.93
2017-04-11T08:50:52.968Z,-1.83
2017-04-11T08:51:52.948Z,-2.03
2017-04-11T08:52:52.935Z,-1.98
2017-04-11T08:53:52.914Z,-1.95
2017-04-11T08:54:52.898Z,-1.92
2017-04-11T08:55:52.874Z,-1.78
2017-04-11T08:56:52.860Z,-1.72
2017-04-11T08:57:52.841Z,-1.62
2017-04-11T08:58:52.822Z,-1.86
2017-04-11T08:59:52.804Z,-2.06
2017-04-11T09:00:52.785Z,-2.19
2017-04-11T09:01:52.467Z,-2.24
2017-04-11T09:02:52.784Z,-2.06
2017-04-11T09:03:52.727Z,-2.33
2017-04-11T09:04:52.715Z,-2.5
2017-04-11T09:05:52.690Z,-2.41
2017-04-11T09:06:52.675Z,-2.33
2017-04-11T09:07:52.359Z,-2.35
2017-04-11T09:08:52.638Z,-2.18
2017-04-11T09:09:52.616Z,-2.32
2017-04-11T09:10:52.609Z,-2.26
2017-04-11T09:11:52.581Z,-2.21
2017-04-11T09:12:52.567Z,-2.19
2017-04-11T09:13:52.553Z,-2.26
2017-04-11T09:14:52.527Z,-2.25
2017-04-11T09:15:52.505Z,-2.26
2017-04-11T09:16:52.492Z,-2.22
2017-04-11T09:17:52.469Z,-2.33
2017-04-11T09:18:52.452Z,-2.22
2017-04-11T09:19:52.437Z,-2.28
2017-04-11T09:20:52.411Z,-2.26
2017-04-11T09:21:52.396Z,-2.4
2017-04-11T09:22:52.373Z,-2.35
2017-04-11T09:23:52.354Z,-2.29
2017-04-11T09:24:52.335Z,-2.24
2017-04-11T09:25:52.319Z,-2.24
2017-04-11T09:26:52.308Z,-2.28
2017-04-11T09:27:52.280Z,-2.29
2017-04-11T09:28:52.258Z,-2.35
2017-04-11T09:29:52.244Z,-2.25
2017-04-11T09:30:52.224Z,-1.93
2017-04-11T09:31:52.207Z,-1.88
2017-04-11T09:32:52.193Z,-1.9
2017-04-11T09:33:52.187Z,-2
2017-04-11T09:34:51.846Z,-1.9
2017-04-11T09:35:52.131Z,-1.7
2017-04-11T09:36:52.114Z,-1.85
2017-04-11T09:37:52.095Z,-1.9
2017-04-11T09:38:52.075Z,-2.07
2017-04-11T09:39:52.051Z,-2.16
2017-04-11T09:40:52.037Z,-2.07
2017-04-11T09:41:52.021Z,-2.07
2017-04-11T09:42:51.703Z,-2.01
2017-04-11T09:43:51.978Z,-1.92
2017-04-11T09:44:51.962Z,-2.1
2017-04-11T09:45:51.945Z,-1.9
2017-04-11T09:46:51.928Z,-1.86
2017-04-11T09:47:51.613Z,-1.82
2017-04-11T09:48:51.589Z,-1.89
2017-04-11T09:49:51.573Z,-1.67
2017-04-11T09:50:51.860Z,-1.47
2017-04-11T09:51:51.830Z,-1.43
2017-04-11T09:52:51.816Z,-1.49
2017-04-11T09:53:51.801Z,-1.57
2017-04-11T09:54:51.480Z,-1.82
2017-04-11T09:55:51.161Z,-1.93
2017-04-11T09:56:51.446Z,-1.93
2017-04-11T09:57:51.123Z,-1.89
2017-04-11T09:58:51.712Z,-2.03
2017-04-11T09:59:51.387Z,-1.89
2017-04-11T10:00:51.674Z,-1.88
2017-04-11T10:01:51.650Z,-1.89
2017-04-11T10:02:51.637Z,-1.82
2017-04-11T10:03:51.621Z,-1.92
2017-04-11T10:04:51.600Z,-1.93
2017-04-11T10:05:51.580Z,-1.77
2017-04-11T10:06:51.263Z,-1.72
2017-04-11T10:07:51.547Z,-1.86
2017-04-11T10:08:51.528Z,-1.65
2017-04-11T10:09:51.509Z,-1.41
2017-04-11T10:10:51.489Z,-1.35
2017-04-11T10:11:51.475Z,-1.36
2017-04-11T10:12:51.456Z,-1.31
2017-04-11T10:13:51.139Z,-1.38
2017-04-11T10:14:51.419Z,-1.54
2017-04-11T10:15:51.099Z,-1.53
2017-04-11T10:16:51.079Z,-1.46
2017-04-11T10:17:51.365Z,-1.23
2017-04-11T10:18:51.044Z,-1.23
2017-04-11T10:19:51.025Z,-1.51
2017-04-11T10:20:51.007Z,-1.62
2017-04-11T10:21:50.990Z,-1.75
2017-04-11T10:22:51.278Z,-2.06
2017-04-11T10:23:51.256Z,-2.04
2017-04-11T10:24:51.237Z,-2.21
2017-04-11T10:25:51.220Z,-2.18
2017-04-11T10:26:51.200Z,-2.19
2017-04-11T10:27:51.184Z,-2.19
2017-04-11T10:28:51.170Z,-2.21
2017-04-11T10:29:50.544Z,-2.11
2017-04-11T10:30:50.821Z,-2.1
2017-04-11T10:31:51.103Z,-2.07
2017-04-11T10:32:51.101Z,-2.19
2017-04-11T10:33:51.074Z,-2.01
2017-04-11T10:34:50.751Z,-1.98
2017-04-11T10:35:51.034Z,-2.03
2017-04-11T10:36:50.713Z,-2.07
2017-04-11T10:37:50.701Z,-2.03
2017-04-11T10:38:50.675Z,-1.96
2017-04-11T10:39:50.355Z,-1.96
2017-04-11T10:40:50.943Z,-1.77
2017-04-11T10:41:50.923Z,-1.75
2017-04-11T10:42:50.913Z,-1.49
2017-04-11T10:43:50.887Z,-1.39
2017-04-11T10:44:50.863Z,-1.68
2017-04-11T10:45:50.548Z,-1.71
2017-04-11T10:46:50.830Z,-1.8
2017-04-11T10:47:50.513Z,-1.78
2017-04-11T10:48:50.498Z,-1.59
2017-04-11T10:49:50.781Z,-1.54
2017-04-11T10:50:50.757Z,-1.53
2017-04-11T10:51:50.738Z,-1.46
2017-04-11T10:52:50.719Z,-1.28
2017-04-11T10:53:50.707Z,-1.11
2017-04-11T10:54:50.392Z,-1.15
2017-04-11T10:55:50.665Z,-1.29
2017-04-11T10:56:50.650Z,-1.43
2017-04-11T10:57:50.328Z,-1.38
2017-04-11T10:58:50.611Z,-1.39
2017-04-11T10:59:50.594Z,-1.49
2017-04-11T11:00:50.630Z,-1.35
2017-04-11T11:01:50.559Z,-1.05
2017-04-11T11:02:50.542Z,-1.2
2017-04-11T11:03:50.522Z,-1.2
2017-04-11T11:04:50.506Z,-1.15
2017-04-11T11:05:50.488Z,-1.14
2017-04-11T11:06:50.470Z,-0.83
2017-04-11T11:07:50.461Z,-0.71
2017-04-11T11:08:50.431Z,-0.67
2017-04-11T11:09:50.419Z,-0.6
2017-04-11T11:10:49.793Z,-0.74
2017-04-11T11:11:50.378Z,-0.55
2017-04-11T11:12:50.364Z,-1.03
2017-04-11T11:13:50.346Z,-1.15
2017-04-11T11:14:50.028Z,-1.21
2017-04-11T11:15:50.310Z,-1.31
2017-04-11T11:16:50.009Z,-1.21
2017-04-11T11:17:50.282Z,-1.49
2017-04-11T11:18:50.260Z,-1.75
2017-04-11T11:19:49.941Z,-1.83
2017-04-11T11:20:49.622Z,-1.83
2017-04-11T11:21:49.903Z,-1.68
2017-04-11T11:22:50.191Z,-1.57
2017-04-11T11:23:50.172Z,-1.65
2017-04-11T11:24:50.152Z,-1.83
2017-04-11T11:25:49.831Z,-1.92
2017-04-11T11:26:49.514Z,-1.93
2017-04-11T11:27:49.497Z,-1.64
2017-04-11T11:28:50.083Z,-1.67
2017-04-11T11:29:50.061Z,-1.85
2017-04-11T11:30:50.047Z,-2.01
2017-04-11T11:31:50.038Z,-2.22
2017-04-11T11:32:50.009Z,-2.26
2017-04-11T11:33:49.999Z,-2.22
2017-04-11T11:34:49.977Z,-2.16
2017-04-11T11:35:49.960Z,-2.22
2017-04-11T11:36:49.940Z,-2.21
2017-04-11T11:37:49.924Z,-2.16
2017-04-11T11:38:49.600Z,-2.28
2017-04-11T11:39:49.889Z,-1.9
2017-04-11T11:40:49.865Z,-1.51
2017-04-11T11:41:49.848Z,-1.25
2017-04-11T11:42:49.836Z,-0.95
2017-04-11T11:43:49.810Z,-0.5
2017-04-11T11:44:49.489Z,-0.2
2017-04-11T11:45:49.779Z,-0.12
2017-04-11T11:46:49.759Z,-0.09
2017-04-11T11:47:49.744Z,-0.35
2017-04-11T11:48:49.726Z,-0.63
2017-04-11T11:49:49.709Z,-0.76
2017-04-11T11:50:49.390Z,-0.73
2017-04-11T11:51:49.674Z,-1.21
2017-04-11T11:52:49.764Z,-1.31
2017-04-11T11:53:49.635Z,-1.39
2017-04-11T11:54:49.628Z,-1.23
2017-04-11T11:55:49.604Z,-0.83
2017-04-11T11:56:49.288Z,-0.5
2017-04-11T11:57:49.565Z,-0.37
2017-04-11T11:58:49.245Z,-0.34
2017-04-11T11:59:49.232Z,-0.09
2017-04-11T12:00:49.218Z,-0.05
2017-04-11T12:01:49.199Z,-0.45
2017-04-11T12:02:49.185Z,-0.27
2017-04-11T12:03:49.475Z,-0.09
2017-04-11T12:04:49.453Z,0.3
2017-04-11T12:05:49.137Z,0.63
2017-04-11T12:06:49.116Z,0.98
2017-04-11T12:07:49.409Z,0.75
2017-04-11T12:08:49.395Z,0.31
2017-04-11T12:09:49.373Z,-0.06
2017-04-11T12:10:49.357Z,-0.05
2017-04-11T12:11:49.337Z,-0.03
2017-04-11T12:12:49.325Z,-0.03
2017-04-11T12:13:49.304Z,-0.13
2017-04-11T12:14:49.499Z,-0.53
2017-04-11T12:15:49.273Z,-0.96
2017-04-11T12:16:49.260Z,-0.76
2017-04-11T12:17:49.244Z,-0.85
2017-04-11T12:18:49.235Z,-0.41
2017-04-11T12:19:48.907Z,-0.38
2017-04-11T12:20:49.188Z,-0.3
2017-04-11T12:21:49.176Z,-0.27
2017-04-11T12:22:49.359Z,-0.39
2017-04-11T12:23:49.139Z,-0.58
2017-04-11T12:24:49.128Z,-0.5
2017-04-11T12:25:48.805Z,-0.8
2017-04-11T12:26:48.791Z,-0.97
2017-04-11T12:27:48.778Z,-0.96
2017-04-11T12:28:49.071Z,-0.55
2017-04-11T12:29:48.744Z,-0.42
2017-04-11T12:30:49.022Z,-0.6
2017-04-11T12:31:49.002Z,-0.37
2017-04-11T12:32:48.989Z,-0.56
2017-04-11T12:33:48.969Z,-0.24
2017-04-11T12:34:48.351Z,-0.08
2017-04-11T12:35:48.638Z,-0.06
2017-04-11T12:36:48.928Z,0.13
2017-04-11T12:37:48.605Z,-0.14
2017-04-11T12:38:48.893Z,-0.02
2017-04-11T12:39:48.873Z,0.01
2017-04-11T12:40:48.854Z,-0.35
2017-04-11T12:41:48.836Z,-0.86
2017-04-11T12:42:48.821Z,-0.97
2017-04-11T12:44:02.189Z,-0.92
2017-04-11T12:44:48.785Z,-0.99
2017-04-11T12:45:48.775Z,-0.68
2017-04-11T12:46:48.754Z,0.07
2017-04-11T12:47:48.740Z,0.12
2017-04-11T12:48:48.622Z,-0.39
2017-04-11T12:49:48.699Z,-0.8
2017-04-11T12:50:48.687Z,-1.18
2017-04-11T12:51:48.667Z,-1.31
2017-04-11T12:52:48.352Z,-1.31
2017-04-11T12:53:48.634Z,-1.38
2017-04-11T12:54:48.614Z,-0.99